PWSweather.com
Personal Weather Stations
Station Observations
KAZSIERR7
Canyon De Flores, Sierra Vista, AZ 85650

Canyon De FloresSierra Vista, AZ 85650

Lat: 31.5, Lon: -110.26

Elevation: 4645

Station Type: LaCrosse WS-3610 & Boltek Lightning Detector

http://www.lightningring.com/weather/

High Low Average
Temperature 79.4°F26.3°C 42.6°F5.9°C 60.0°F15.6°C
Dew Point 29.8°F-1.2°C 14.9°F-9.5°C 23.9°F-4.5°C
Winds 9.5 mph 15.3 kmh Calm Calm 2.0 mph SW3.2 kmh SW
Wind Gusts 63.8 mph102.7 kmh -- 14.0 mph22.5 kmh
Humidity 50% 11% 29%
Pressure 30.11 in1019.6 mb 30.01 in1016.3 mb -
Precipitation 0.00 in0.0 mm - -
Hour Temp Dew Point Humidity Winds Wind Gusts Pressure Precip Precip Rate Daily Precip Total
12:09 AM 51.0°F10.6°C 22.7°F-5.2°C 33% Calm Calm -- 30.06 in1017.9 mb 0.00 in0.0 mm 0.00 in/hr0.0 mm/hr 0.00 in0.0 mm
12:19 AM 50.7°F10.4°C 22.4°F-5.3°C 33% Calm Calm -- 30.06 in1017.9 mb 0.00 in0.0 mm 0.00 in/hr0.0 mm/hr 0.00 in0.0 mm
12:30 AM 49.9°F9.9°C 22.4°F-5.3°C 34% Calm Calm -- 30.06 in1017.9 mb 0.00 in0.0 mm 0.00 in/hr0.0 mm/hr 0.00 in0.0 mm
12:40 AM 49.6°F9.8°C 22.1°F-5.5°C 34% Calm Calm -- 30.06 in1017.9 mb 0.00 in0.0 mm 0.00 in/hr0.0 mm/hr 0.00 in0.0 mm
12:51 AM 49.2°F9.6°C 22.5°F-5.3°C 35% Calm Calm -- 30.06 in1017.9 mb 0.00 in0.0 mm 0.00 in/hr0.0 mm/hr 0.00 in0.0 mm
01:01 AM 50.1°F10.1°C 22.6°F-5.2°C 34% Calm Calm -- 30.06 in1017.9 mb 0.00 in0.0 mm 0.00 in/hr0.0 mm/hr 0.00 in0.0 mm
01:12 AM 49.4°F9.7°C 23.3°F-4.8°C 36% Calm Calm -- 30.07 in1018.3 mb 0.00 in0.0 mm 0.00 in/hr0.0 mm/hr 0.00 in0.0 mm
01:22 AM 48.5°F9.2°C 23.8°F-4.6°C 38% Calm Calm -- 30.07 in1018.3 mb 0.00 in0.0 mm 0.00 in/hr0.0 mm/hr 0.00 in0.0 mm
01:33 AM 48.0°F8.9°C 23.4°F-4.8°C 38% Calm Calm -- 30.07 in1018.3 mb 0.00 in0.0 mm 0.00 in/hr0.0 mm/hr 0.00 in0.0 mm
01:43 AM 47.2°F8.4°C 23.9°F-4.5°C 40% Calm Calm -- 30.07 in1018.3 mb 0.00 in0.0 mm 0.00 in/hr0.0 mm/hr 0.00 in0.0 mm
01:54 AM 46.0°F7.8°C 24.0°F-4.4°C 42% Calm Calm -- 30.07 in1018.3 mb 0.00 in0.0 mm 0.00 in/hr0.0 mm/hr 0.00 in0.0 mm
02:04 AM 45.6°F7.6°C 24.2°F-4.3°C 43% Calm Calm -- 30.07 in1018.3 mb 0.00 in0.0 mm 0.00 in/hr0.0 mm/hr 0.00 in0.0 mm
02:14 AM 45.6°F7.6°C 23.7°F-4.6°C 42% Calm Calm -- 30.07 in1018.3 mb 0.00 in0.0 mm 0.00 in/hr0.0 mm/hr 0.00 in0.0 mm
02:25 AM 45.3°F7.4°C 24.0°F-4.4°C 43% Calm Calm -- 30.07 in1018.3 mb 0.00 in0.0 mm 0.00 in/hr0.0 mm/hr 0.00 in0.0 mm
02:35 AM 44.2°F6.8°C 24.1°F-4.4°C 45% Calm Calm -- 30.07 in1018.3 mb 0.00 in0.0 mm 0.00 in/hr0.0 mm/hr 0.00 in0.0 mm
02:46 AM 44.4°F6.9°C 23.7°F-4.6°C 44% Calm Calm -- 30.07 in1018.3 mb 0.00 in0.0 mm 0.00 in/hr0.0 mm/hr 0.00 in0.0 mm
02:56 AM 44.0°F6.7°C 23.3°F-4.8°C 44% Calm Calm -- 30.07 in1018.3 mb 0.00 in0.0 mm 0.00 in/hr0.0 mm/hr 0.00 in0.0 mm
03:07 AM 43.6°F6.4°C 24.6°F-4.1°C 47% Calm Calm -- 30.07 in1018.3 mb 0.00 in0.0 mm 0.00 in/hr0.0 mm/hr 0.00 in0.0 mm
03:17 AM 43.8°F6.6°C 24.2°F-4.3°C 46% Calm Calm -- 30.07 in1018.3 mb 0.00 in0.0 mm 0.00 in/hr0.0 mm/hr 0.00 in0.0 mm
03:28 AM 44.0°F6.7°C 25.0°F-3.9°C 47% Calm Calm -- 30.07 in1018.3 mb 0.00 in0.0 mm 0.00 in/hr0.0 mm/hr 0.00 in0.0 mm
03:38 AM 43.6°F6.4°C 24.6°F-4.1°C 47% Calm Calm -- 30.07 in1018.3 mb 0.00 in0.0 mm 0.00 in/hr0.0 mm/hr 0.00 in0.0 mm
03:49 AM 42.6°F5.9°C 25.2°F-3.8°C 50% Calm Calm -- 30.07 in1018.3 mb 0.00 in0.0 mm 0.00 in/hr0.0 mm/hr 0.00 in0.0 mm
03:59 AM 43.3°F6.3°C 25.4°F-3.7°C 49% Calm Calm -- 30.07 in1018.3 mb 0.00 in0.0 mm 0.00 in/hr0.0 mm/hr 0.00 in0.0 mm
04:10 AM 43.5°F6.4°C 25.0°F-3.9°C 48% Calm Calm -- 30.07 in1018.3 mb 0.00 in0.0 mm 0.00 in/hr0.0 mm/hr 0.00 in0.0 mm
04:20 AM 43.6°F6.4°C 26.1°F-3.3°C 50% Calm Calm -- 30.07 in1018.3 mb 0.00 in0.0 mm 0.00 in/hr0.0 mm/hr 0.00 in0.0 mm
04:31 AM 43.5°F6.4°C 26.0°F-3.3°C 50% Calm Calm -- 30.07 in1018.3 mb 0.00 in0.0 mm 0.00 in/hr0.0 mm/hr 0.00 in0.0 mm
04:41 AM 43.6°F6.4°C 25.6°F-3.6°C 49% Calm Calm -- 30.07 in1018.3 mb 0.00 in0.0 mm 0.00 in/hr0.0 mm/hr 0.00 in0.0 mm
04:52 AM 43.5°F6.4°C 25.5°F-3.6°C 49% Calm Calm -- 30.08 in1018.6 mb 0.00 in0.0 mm 0.00 in/hr0.0 mm/hr 0.00 in0.0 mm
05:02 AM 43.6°F6.4°C 25.6°F-3.6°C 49% Calm Calm -- 30.08 in1018.6 mb 0.00 in0.0 mm 0.00 in/hr0.0 mm/hr 0.00 in0.0 mm
05:13 AM 43.3°F6.3°C 24.8°F-4.0°C 48% Calm Calm -- 30.08 in1018.6 mb 0.00 in0.0 mm 0.00 in/hr0.0 mm/hr 0.00 in0.0 mm
05:23 AM 42.9°F6.1°C 25.0°F-3.9°C 49% Calm Calm -- 30.08 in1018.6 mb 0.00 in0.0 mm 0.00 in/hr0.0 mm/hr 0.00 in0.0 mm
05:34 AM 43.3°F6.3°C 25.4°F-3.7°C 49% Calm Calm -- 30.08 in1018.6 mb 0.00 in0.0 mm 0.00 in/hr0.0 mm/hr 0.00 in0.0 mm
05:44 AM 43.3°F6.3°C 25.4°F-3.7°C 49% Calm Calm -- 30.08 in1018.6 mb 0.00 in0.0 mm 0.00 in/hr0.0 mm/hr 0.00 in0.0 mm
05:55 AM 43.5°F6.4°C 25.0°F-3.9°C 48% Calm Calm -- 30.09 in1019.0 mb 0.00 in0.0 mm 0.00 in/hr0.0 mm/hr 0.00 in0.0 mm
06:05 AM 44.2°F6.8°C 24.6°F-4.1°C 46% Calm Calm -- 30.08 in1018.6 mb 0.00 in0.0 mm 0.00 in/hr0.0 mm/hr 0.00 in0.0 mm
06:16 AM 44.2°F6.8°C 24.6°F-4.1°C 46% Calm Calm -- 30.09 in1019.0 mb 0.00 in0.0 mm 0.00 in/hr0.0 mm/hr 0.00 in0.0 mm
06:26 AM 43.6°F6.4°C 24.6°F-4.1°C 47% Calm Calm -- 30.09 in1019.0 mb 0.00 in0.0 mm 0.00 in/hr0.0 mm/hr 0.00 in0.0 mm
06:37 AM 43.5°F6.4°C 25.0°F-3.9°C 48% Calm Calm -- 30.09 in1019.0 mb 0.00 in0.0 mm 0.00 in/hr0.0 mm/hr 0.00 in0.0 mm
06:47 AM 46.0°F7.8°C 25.7°F-3.5°C 45% Calm Calm -- 30.09 in1019.0 mb 0.00 in0.0 mm 0.00 in/hr0.0 mm/hr 0.00 in0.0 mm
06:58 AM 50.8°F10.4°C 27.2°F-2.7°C 40% Calm Calm -- 30.09 in1019.0 mb 0.00 in0.0 mm 0.00 in/hr0.0 mm/hr 0.00 in0.0 mm
07:08 AM 54.1°F12.3°C 26.9°F-2.8°C 35% Calm Calm -- 30.10 in1019.3 mb 0.00 in0.0 mm 0.00 in/hr0.0 mm/hr 0.00 in0.0 mm
07:19 AM 57.4°F14.1°C 27.5°F-2.5°C 32% Calm Calm -- 30.10 in1019.3 mb 0.00 in0.0 mm 0.00 in/hr0.0 mm/hr 0.00 in0.0 mm
07:29 AM 62.0°F16.7°C 28.3°F-2.1°C 28% Calm Calm -- 30.10 in1019.3 mb 0.00 in0.0 mm 0.00 in/hr0.0 mm/hr 0.00 in0.0 mm
07:40 AM 68.1°F20.1°C 29.8°F-1.2°C 24% Calm Calm -- 30.09 in1019.0 mb 0.00 in0.0 mm 0.00 in/hr0.0 mm/hr 0.00 in0.0 mm
07:50 AM 66.7°F19.3°C 27.6°F-2.4°C 23% Calm Calm -- 30.10 in1019.3 mb 0.00 in0.0 mm 0.00 in/hr0.0 mm/hr 0.00 in0.0 mm
08:01 AM 63.4°F17.4°C 27.8°F-2.3°C 26% Calm Calm -- 30.10 in1019.3 mb 0.00 in0.0 mm 0.00 in/hr0.0 mm/hr 0.00 in0.0 mm
08:11 AM 65.8°F18.8°C 25.8°F-3.4°C 22% 0.6 mph SE1.0 kmh SE 2.6 mph4.2 kmh 30.10 in1019.3 mb 0.00 in0.0 mm 0.00 in/hr0.0 mm/hr 0.00 in0.0 mm
08:22 AM 62.0°F16.7°C 25.6°F-3.6°C 25% Calm Calm 4.8 mph7.7 kmh 30.11 in1019.6 mb 0.00 in0.0 mm 0.00 in/hr0.0 mm/hr 0.00 in0.0 mm
08:32 AM 65.6°F18.7°C 26.7°F-2.9°C 23% Calm Calm 0.8 mph1.3 kmh 30.11 in1019.6 mb 0.00 in0.0 mm 0.00 in/hr0.0 mm/hr 0.00 in0.0 mm
08:43 AM 66.8°F19.3°C 25.5°F-3.6°C 21% Calm Calm 4.0 mph6.4 kmh 30.11 in1019.6 mb 0.00 in0.0 mm 0.00 in/hr0.0 mm/hr 0.00 in0.0 mm
08:53 AM 68.9°F20.5°C 24.9°F-3.9°C 19% Calm Calm 3.4 mph5.5 kmh 30.11 in1019.6 mb 0.00 in0.0 mm 0.00 in/hr0.0 mm/hr 0.00 in0.0 mm
09:04 AM 69.4°F20.8°C 24.0°F-4.4°C 18% Calm Calm 1.2 mph1.9 kmh 30.11 in1019.6 mb 0.00 in0.0 mm 0.00 in/hr0.0 mm/hr 0.00 in0.0 mm
09:14 AM 68.4°F20.2°C 24.5°F-4.2°C 19% 4.9 mph ESE7.9 kmh ESE 6.6 mph10.6 kmh 30.11 in1019.6 mb 0.00 in0.0 mm 0.00 in/hr0.0 mm/hr 0.00 in0.0 mm
09:25 AM 71.8°F22.1°C 26.0°F-3.3°C 18% Calm Calm -- 30.11 in1019.6 mb 0.00 in0.0 mm 0.00 in/hr0.0 mm/hr 0.00 in0.0 mm
09:35 AM 72.6°F22.6°C 25.2°F-3.8°C 17% 1.2 mph ENE1.9 kmh ENE 1.6 mph2.6 kmh 30.11 in1019.6 mb 0.00 in0.0 mm 0.00 in/hr0.0 mm/hr 0.00 in0.0 mm
09:46 AM 70.1°F21.2°C 25.9°F-3.4°C 19% Calm Calm 5.8 mph9.3 kmh 30.10 in1019.3 mb 0.00 in0.0 mm 0.00 in/hr0.0 mm/hr 0.00 in0.0 mm
09:56 AM 68.2°F20.1°C 26.7°F-2.9°C 21% 2.3 mph SE3.7 kmh SE 34.0 mph54.7 kmh 30.10 in1019.3 mb 0.00 in0.0 mm 0.00 in/hr0.0 mm/hr 0.00 in0.0 mm
10:07 AM 71.0°F21.7°C 27.8°F-2.3°C 20% 1.7 mph WSW2.7 kmh WSW 4.8 mph7.7 kmh 30.10 in1019.3 mb 0.00 in0.0 mm 0.00 in/hr0.0 mm/hr 0.00 in0.0 mm
10:17 AM 69.1°F20.6°C 25.0°F-3.9°C 19% 6.5 mph SE10.5 kmh SE 42.4 mph68.2 kmh 30.10 in1019.3 mb 0.00 in0.0 mm 0.00 in/hr0.0 mm/hr 0.00 in0.0 mm
10:28 AM 68.3°F20.2°C 24.4°F-4.2°C 19% 7.1 mph S11.4 kmh S 49.2 mph79.2 kmh 30.10 in1019.3 mb 0.00 in0.0 mm 0.00 in/hr0.0 mm/hr 0.00 in0.0 mm
10:38 AM 69.1°F20.6°C 25.1°F-3.8°C 19% 5.7 mph SSE9.2 kmh SSE 54.4 mph87.5 kmh 30.10 in1019.3 mb 0.00 in0.0 mm 0.00 in/hr0.0 mm/hr 0.00 in0.0 mm
10:49 AM 67.4°F19.7°C 26.1°F-3.3°C 21% 9.5 mph SE15.3 kmh SE 46.4 mph74.7 kmh 30.10 in1019.3 mb 0.00 in0.0 mm 0.00 in/hr0.0 mm/hr 0.00 in0.0 mm
10:59 AM 68.4°F20.2°C 24.5°F-4.2°C 19% 6.8 mph ESE10.9 kmh ESE 50.4 mph81.1 kmh 30.10 in1019.3 mb 0.00 in0.0 mm 0.00 in/hr0.0 mm/hr 0.00 in0.0 mm
11:10 AM 68.6°F20.3°C 25.8°F-3.4°C 20% 5.7 mph SSE9.2 kmh SSE 47.4 mph76.3 kmh 30.09 in1019.0 mb 0.00 in0.0 mm 0.00 in/hr0.0 mm/hr 0.00 in0.0 mm
11:20 AM 68.8°F20.4°C 24.8°F-4.0°C 19% 6.0 mph SE9.7 kmh SE 42.0 mph67.6 kmh 30.09 in1019.0 mb 0.00 in0.0 mm 0.00 in/hr0.0 mm/hr 0.00 in0.0 mm
11:31 AM 68.7°F20.4°C 24.7°F-4.1°C 19% 3.9 mph WSW6.3 kmh WSW 38.4 mph61.8 kmh 30.09 in1019.0 mb 0.00 in0.0 mm 0.00 in/hr0.0 mm/hr 0.00 in0.0 mm
11:41 AM 68.8°F20.4°C 23.5°F-4.7°C 18% 9.3 mph SSE15.0 kmh SSE 43.8 mph70.5 kmh 30.09 in1019.0 mb 0.00 in0.0 mm 0.00 in/hr0.0 mm/hr 0.00 in0.0 mm
11:52 AM 70.6°F21.4°C 22.1°F-5.5°C 16% 4.7 mph SSE7.6 kmh SSE 63.8 mph102.7 kmh 30.08 in1018.6 mb 0.00 in0.0 mm 0.00 in/hr0.0 mm/hr 0.00 in0.0 mm
12:02 PM 70.5°F21.4°C 23.6°F-4.7°C 17% 6.0 mph S9.7 kmh S 52.2 mph84.0 kmh 30.08 in1018.6 mb 0.00 in0.0 mm 0.00 in/hr0.0 mm/hr 0.00 in0.0 mm
12:13 PM 71.4°F21.9°C 22.8°F-5.1°C 16% 5.5 mph SSE8.9 kmh SSE 42.0 mph67.6 kmh 30.06 in1017.9 mb 0.00 in0.0 mm 0.00 in/hr0.0 mm/hr 0.00 in0.0 mm
12:23 PM 71.6°F22.0°C 24.4°F-4.2°C 17% 2.6 mph SE4.2 kmh SE 58.0 mph93.3 kmh 30.07 in1018.3 mb 0.00 in0.0 mm 0.00 in/hr0.0 mm/hr 0.00 in0.0 mm
12:34 PM 72.4°F22.4°C 22.1°F-5.5°C 15% 5.9 mph ESE9.5 kmh ESE 52.2 mph84.0 kmh 30.07 in1018.3 mb 0.00 in0.0 mm 0.00 in/hr0.0 mm/hr 0.00 in0.0 mm
12:44 PM 75.3°F24.1°C 24.4°F-4.2°C 15% Calm Calm 5.8 mph9.3 kmh 30.06 in1017.9 mb 0.00 in0.0 mm 0.00 in/hr0.0 mm/hr 0.00 in0.0 mm
12:55 PM 71.9°F22.2°C 21.7°F-5.7°C 15% 1.2 mph ESE1.9 kmh ESE 4.8 mph7.7 kmh 30.06 in1017.9 mb 0.00 in0.0 mm 0.00 in/hr0.0 mm/hr 0.00 in0.0 mm
01:05 PM 72.9°F22.7°C 20.8°F-6.2°C 14% 6.3 mph ESE10.1 kmh ESE 10.2 mph16.4 kmh 30.06 in1017.9 mb 0.00 in0.0 mm 0.00 in/hr0.0 mm/hr 0.00 in0.0 mm
01:16 PM 71.9°F22.2°C 21.7°F-5.7°C 15% 4.1 mph S6.6 kmh S 38.8 mph62.4 kmh 30.06 in1017.9 mb 0.00 in0.0 mm 0.00 in/hr0.0 mm/hr 0.00 in0.0 mm
01:26 PM 75.1°F23.9°C 22.6°F-5.2°C 14% 3.5 mph SSW5.6 kmh SSW 7.6 mph12.2 kmh 30.05 in1017.6 mb 0.00 in0.0 mm 0.00 in/hr0.0 mm/hr 0.00 in0.0 mm
01:37 PM 72.1°F22.3°C 20.1°F-6.6°C 14% 5.3 mph SSE8.5 kmh SSE 39.8 mph64.1 kmh 30.04 in1017.3 mb 0.00 in0.0 mm 0.00 in/hr0.0 mm/hr 0.00 in0.0 mm
01:47 PM 73.0°F22.8°C 20.9°F-6.2°C 14% 6.5 mph SE10.5 kmh SE 52.2 mph84.0 kmh 30.04 in1017.3 mb 0.00 in0.0 mm 0.00 in/hr0.0 mm/hr 0.00 in0.0 mm
01:58 PM 73.2°F22.9°C 21.1°F-6.1°C 14% 8.5 mph S13.7 kmh S 45.6 mph73.4 kmh 30.04 in1017.3 mb 0.00 in0.0 mm 0.00 in/hr0.0 mm/hr 0.00 in0.0 mm
02:08 PM 73.1°F22.8°C 17.2°F-8.2°C 12% 6.3 mph SSE10.1 kmh SSE 56.8 mph91.4 kmh 30.04 in1017.3 mb 0.00 in0.0 mm 0.00 in/hr0.0 mm/hr 0.00 in0.0 mm
02:19 PM 73.5°F23.1°C 17.6°F-8.0°C 12% 6.3 mph SSW10.1 kmh SSW 8.4 mph13.5 kmh 30.04 in1017.3 mb 0.00 in0.0 mm 0.00 in/hr0.0 mm/hr 0.00 in0.0 mm
02:29 PM 76.1°F24.5°C 19.6°F-6.9°C 12% 3.9 mph SW6.3 kmh SW 7.6 mph12.2 kmh 30.03 in1016.9 mb 0.00 in0.0 mm 0.00 in/hr0.0 mm/hr 0.00 in0.0 mm
02:40 PM 72.6°F22.6°C 16.9°F-8.4°C 12% 8.4 mph SE13.5 kmh SE 38.4 mph61.8 kmh 30.03 in1016.9 mb 0.00 in0.0 mm 0.00 in/hr0.0 mm/hr 0.00 in0.0 mm
02:50 PM 72.7°F22.6°C 14.9°F-9.5°C 11% 5.9 mph SE9.5 kmh SE 50.4 mph81.1 kmh 30.03 in1016.9 mb 0.00 in0.0 mm 0.00 in/hr0.0 mm/hr 0.00 in0.0 mm
03:01 PM 74.5°F23.6°C 18.4°F-7.6°C 12% 3.9 mph S6.3 kmh S 47.8 mph76.9 kmh 30.03 in1016.9 mb 0.00 in0.0 mm 0.00 in/hr0.0 mm/hr 0.00 in0.0 mm
03:11 PM 73.4°F23.0°C 17.5°F-8.1°C 12% 5.3 mph SE8.5 kmh SE 38.8 mph62.4 kmh 30.03 in1016.9 mb 0.00 in0.0 mm 0.00 in/hr0.0 mm/hr 0.00 in0.0 mm
03:22 PM 75.6°F24.2°C 17.2°F-8.2°C 11% 0.9 mph SSE1.4 kmh SSE 34.0 mph54.7 kmh 30.03 in1016.9 mb 0.00 in0.0 mm 0.00 in/hr0.0 mm/hr 0.00 in0.0 mm
03:32 PM 75.8°F24.3°C 23.1°F-4.9°C 14% 5.3 mph SSW8.5 kmh SSW 55.4 mph89.2 kmh 30.03 in1016.9 mb 0.00 in0.0 mm 0.00 in/hr0.0 mm/hr 0.00 in0.0 mm
03:43 PM 77.7°F25.4°C 20.8°F-6.2°C 12% 1.2 mph WSW1.9 kmh WSW 1.6 mph2.6 kmh 30.02 in1016.6 mb 0.00 in0.0 mm 0.00 in/hr0.0 mm/hr 0.00 in0.0 mm
03:53 PM 76.9°F24.9°C 20.2°F-6.6°C 12% 0.6 mph SSE1.0 kmh SSE 3.0 mph4.8 kmh 30.02 in1016.6 mb 0.00 in0.0 mm 0.00 in/hr0.0 mm/hr 0.00 in0.0 mm
04:04 PM 79.4°F26.3°C 24.1°F-4.4°C 13% 6.6 mph W10.6 kmh W 8.8 mph14.2 kmh 30.02 in1016.6 mb 0.00 in0.0 mm 0.00 in/hr0.0 mm/hr 0.00 in0.0 mm
04:14 PM 77.6°F25.3°C 24.5°F-4.2°C 14% 3.0 mph WNW4.8 kmh WNW 10.2 mph16.4 kmh 30.02 in1016.6 mb 0.00 in0.0 mm 0.00 in/hr0.0 mm/hr 0.00 in0.0 mm
04:25 PM 76.8°F24.9°C 25.6°F-3.6°C 15% 4.6 mph W7.4 kmh W 8.0 mph12.9 kmh 30.02 in1016.6 mb 0.00 in0.0 mm 0.00 in/hr0.0 mm/hr 0.00 in0.0 mm
04:35 PM 76.0°F24.4°C 26.6°F-3.0°C 16% 6.4 mph W10.3 kmh W 10.2 mph16.4 kmh 30.01 in1016.3 mb 0.00 in0.0 mm 0.00 in/hr0.0 mm/hr 0.00 in0.0 mm
04:46 PM 75.6°F24.2°C 26.2°F-3.2°C 16% 5.9 mph W9.5 kmh W 49.6 mph79.8 kmh 30.02 in1016.6 mb 0.00 in0.0 mm 0.00 in/hr0.0 mm/hr 0.00 in0.0 mm
04:56 PM 75.3°F24.1°C 25.9°F-3.4°C 16% 2.8 mph WSW4.5 kmh WSW 9.8 mph15.8 kmh 30.02 in1016.6 mb 0.00 in0.0 mm 0.00 in/hr0.0 mm/hr 0.00 in0.0 mm
05:07 PM 75.6°F24.2°C 26.2°F-3.2°C 16% 0.6 mph WNW1.0 kmh WNW 53.6 mph86.3 kmh 30.03 in1016.9 mb 0.00 in0.0 mm 0.00 in/hr0.0 mm/hr 0.00 in0.0 mm
05:17 PM 75.2°F24.0°C 25.8°F-3.4°C 16% Calm Calm 3.4 mph5.5 kmh 30.02 in1016.6 mb 0.00 in0.0 mm 0.00 in/hr0.0 mm/hr 0.00 in0.0 mm
05:28 PM 74.4°F23.6°C 25.3°F-3.7°C 16% 2.7 mph SW4.3 kmh SW 4.4 mph7.1 kmh 30.03 in1016.9 mb 0.00 in0.0 mm 0.00 in/hr0.0 mm/hr 0.00 in0.0 mm
05:38 PM 74.3°F23.5°C 25.2°F-3.8°C 16% 4.6 mph SW7.4 kmh SW 6.2 mph10.0 kmh 30.03 in1016.9 mb 0.00 in0.0 mm 0.00 in/hr0.0 mm/hr 0.00 in0.0 mm
05:49 PM 72.9°F22.7°C 25.5°F-3.6°C 17% 5.0 mph SW8.0 kmh SW 8.4 mph13.5 kmh 30.03 in1016.9 mb 0.00 in0.0 mm 0.00 in/hr0.0 mm/hr 0.00 in0.0 mm
05:59 PM 72.5°F22.5°C 26.5°F-3.1°C 18% 0.5 mph W0.8 kmh W 8.4 mph13.5 kmh 30.03 in1016.9 mb 0.00 in0.0 mm 0.00 in/hr0.0 mm/hr 0.00 in0.0 mm
06:10 PM 70.3°F21.3°C 26.1°F-3.3°C 19% 1.4 mph W2.3 kmh W 29.0 mph46.7 kmh 30.03 in1016.9 mb 0.00 in0.0 mm 0.00 in/hr0.0 mm/hr 0.00 in0.0 mm
06:20 PM 68.9°F20.5°C 27.3°F-2.6°C 21% 4.6 mph SW7.4 kmh SW 6.2 mph10.0 kmh 30.03 in1016.9 mb 0.00 in0.0 mm 0.00 in/hr0.0 mm/hr 0.00 in0.0 mm
06:31 PM 67.4°F19.7°C 27.1°F-2.7°C 22% 1.7 mph WSW2.7 kmh WSW 7.6 mph12.2 kmh 30.03 in1016.9 mb 0.00 in0.0 mm 0.00 in/hr0.0 mm/hr 0.00 in0.0 mm
06:41 PM 66.7°F19.3°C 26.5°F-3.1°C 22% 0.9 mph W1.4 kmh W 5.2 mph8.4 kmh 30.04 in1017.3 mb 0.00 in0.0 mm 0.00 in/hr0.0 mm/hr 0.00 in0.0 mm
06:52 PM 66.2°F19.0°C 26.1°F-3.3°C 22% Calm Calm 2.6 mph4.2 kmh 30.03 in1016.9 mb 0.00 in0.0 mm 0.00 in/hr0.0 mm/hr 0.00 in0.0 mm
07:02 PM 65.6°F18.7°C 26.7°F-2.9°C 23% 1.7 mph WSW2.7 kmh WSW 2.2 mph3.5 kmh 30.04 in1017.3 mb 0.00 in0.0 mm 0.00 in/hr0.0 mm/hr 0.00 in0.0 mm
07:13 PM 64.9°F18.3°C 26.1°F-3.3°C 23% Calm Calm 0.8 mph1.3 kmh 30.04 in1017.3 mb 0.00 in0.0 mm 0.00 in/hr0.0 mm/hr 0.00 in0.0 mm
07:23 PM 64.0°F17.8°C 26.3°F-3.2°C 24% Calm Calm -- 30.05 in1017.6 mb 0.00 in0.0 mm 0.00 in/hr0.0 mm/hr 0.00 in0.0 mm
07:34 PM 63.6°F17.6°C 26.0°F-3.3°C 24% 1.2 mph SW1.9 kmh SW 1.6 mph2.6 kmh 30.04 in1017.3 mb 0.00 in0.0 mm 0.00 in/hr0.0 mm/hr 0.00 in0.0 mm
07:44 PM 62.9°F17.2°C 26.4°F-3.1°C 25% Calm Calm 2.2 mph3.5 kmh 30.04 in1017.3 mb 0.00 in0.0 mm 0.00 in/hr0.0 mm/hr 0.00 in0.0 mm
07:55 PM 62.5°F16.9°C 27.0°F-2.8°C 26% 0.9 mph W1.4 kmh W 1.2 mph1.9 kmh 30.05 in1017.6 mb 0.00 in0.0 mm 0.00 in/hr0.0 mm/hr 0.00 in0.0 mm
08:05 PM 62.0°F16.7°C 26.5°F-3.1°C 26% Calm Calm 1.2 mph1.9 kmh 30.05 in1017.6 mb 0.00 in0.0 mm 0.00 in/hr0.0 mm/hr 0.00 in0.0 mm
08:15 PM 62.0°F16.7°C 26.5°F-3.1°C 26% Calm Calm -- 30.06 in1017.9 mb 0.00 in0.0 mm 0.00 in/hr0.0 mm/hr 0.00 in0.0 mm
08:26 PM 61.5°F16.4°C 26.1°F-3.3°C 26% Calm Calm 1.2 mph1.9 kmh 30.05 in1017.6 mb 0.00 in0.0 mm 0.00 in/hr0.0 mm/hr 0.00 in0.0 mm
08:36 PM 60.2°F15.7°C 25.9°F-3.4°C 27% Calm Calm -- 30.06 in1017.9 mb 0.00 in0.0 mm 0.00 in/hr0.0 mm/hr 0.00 in0.0 mm
08:47 PM 59.1°F15.1°C 25.8°F-3.4°C 28% Calm Calm -- 30.06 in1017.9 mb 0.00 in0.0 mm 0.00 in/hr0.0 mm/hr 0.00 in0.0 mm
08:57 PM 59.1°F15.1°C 25.8°F-3.4°C 28% Calm Calm -- 30.06 in1017.9 mb 0.00 in0.0 mm 0.00 in/hr0.0 mm/hr 0.00 in0.0 mm
09:08 PM 58.2°F14.6°C 25.9°F-3.4°C 29% Calm Calm -- 30.07 in1018.3 mb 0.00 in0.0 mm 0.00 in/hr0.0 mm/hr 0.00 in0.0 mm
09:18 PM 57.3°F14.1°C 25.9°F-3.4°C 30% Calm Calm -- 30.07 in1018.3 mb 0.00 in0.0 mm 0.00 in/hr0.0 mm/hr 0.00 in0.0 mm
09:29 PM 57.1°F13.9°C 26.5°F-3.1°C 31% Calm Calm 1.2 mph1.9 kmh 30.08 in1018.6 mb 0.00 in0.0 mm 0.00 in/hr0.0 mm/hr 0.00 in0.0 mm
09:39 PM 56.8°F13.8°C 26.3°F-3.2°C 31% Calm Calm 1.6 mph2.6 kmh 30.08 in1018.6 mb 0.00 in0.0 mm 0.00 in/hr0.0 mm/hr 0.00 in0.0 mm
09:50 PM 56.6°F13.7°C 26.1°F-3.3°C 31% Calm Calm -- 30.08 in1018.6 mb 0.00 in0.0 mm 0.00 in/hr0.0 mm/hr 0.00 in0.0 mm
10:00 PM 56.8°F13.8°C 26.3°F-3.2°C 31% Calm Calm -- 30.08 in1018.6 mb 0.00 in0.0 mm 0.00 in/hr0.0 mm/hr 0.00 in0.0 mm
10:11 PM 56.8°F13.8°C 26.3°F-3.2°C 31% 1.7 mph SW2.7 kmh SW 2.2 mph3.5 kmh 30.08 in1018.6 mb 0.00 in0.0 mm 0.00 in/hr0.0 mm/hr 0.00 in0.0 mm
10:21 PM 55.9°F13.3°C 26.2°F-3.2°C 32% Calm Calm 2.2 mph3.5 kmh 30.08 in1018.6 mb 0.00 in0.0 mm 0.00 in/hr0.0 mm/hr 0.00 in0.0 mm
10:32 PM 55.0°F12.8°C 26.2°F-3.2°C 33% Calm Calm -- 30.09 in1019.0 mb 0.00 in0.0 mm 0.00 in/hr0.0 mm/hr 0.00 in0.0 mm
10:42 PM 54.6°F12.6°C 25.8°F-3.4°C 33% Calm Calm -- 30.09 in1019.0 mb 0.00 in0.0 mm 0.00 in/hr0.0 mm/hr 0.00 in0.0 mm
10:53 PM 54.1°F12.3°C 25.4°F-3.7°C 33% Calm Calm -- 30.09 in1019.0 mb 0.00 in0.0 mm 0.00 in/hr0.0 mm/hr 0.00 in0.0 mm
11:03 PM 53.2°F11.8°C 25.3°F-3.7°C 34% Calm Calm -- 30.09 in1019.0 mb 0.00 in0.0 mm 0.00 in/hr0.0 mm/hr 0.00 in0.0 mm
11:14 PM 53.0°F11.7°C 25.1°F-3.8°C 34% Calm Calm -- 30.09 in1019.0 mb 0.00 in0.0 mm 0.00 in/hr0.0 mm/hr 0.00 in0.0 mm
11:24 PM 52.8°F11.6°C 24.2°F-4.3°C 33% Calm Calm -- 30.09 in1019.0 mb 0.00 in0.0 mm 0.00 in/hr0.0 mm/hr 0.00 in0.0 mm
11:35 PM 53.7°F12.1°C 24.3°F-4.3°C 32% Calm Calm -- 30.08 in1018.6 mb 0.00 in0.0 mm 0.00 in/hr0.0 mm/hr 0.00 in0.0 mm
11:45 PM 52.6°F11.4°C 24.8°F-4.0°C 34% Calm Calm -- 30.09 in1019.0 mb 0.00 in0.0 mm 0.00 in/hr0.0 mm/hr 0.00 in0.0 mm
11:56 PM 50.8°F10.4°C 25.2°F-3.8°C 37% Calm Calm -- 30.09 in1019.0 mb 0.00 in0.0 mm 0.00 in/hr0.0 mm/hr 0.00 in0.0 mm